createdAt,value
2023-05-02T00:02:05.117Z,1.88
2023-05-02T00:04:32.274Z,1.81
2023-05-02T00:06:59.490Z,1.74
2023-05-02T00:09:26.566Z,1.70
2023-05-02T00:11:53.611Z,1.65
2023-05-02T00:14:20.661Z,1.61
2023-05-02T00:16:47.856Z,1.60
2023-05-02T00:19:14.954Z,1.62
2023-05-02T00:21:41.900Z,1.63
2023-05-02T00:24:08.947Z,1.66
2023-05-02T00:26:36.199Z,1.65
2023-05-02T00:29:03.245Z,1.62
2023-05-02T00:31:30.443Z,1.56
2023-05-02T00:33:57.548Z,1.50
2023-05-02T00:36:24.695Z,1.47
2023-05-02T00:38:51.639Z,1.46
2023-05-02T00:41:18.890Z,1.43
2023-05-02T00:43:45.937Z,1.43
2023-05-02T00:46:13.549Z,1.45
2023-05-02T00:48:40.850Z,1.50
2023-05-02T00:51:13.632Z,1.54
2023-05-02T00:53:41.395Z,1.51
2023-05-02T00:56:09.702Z,1.47
2023-05-02T00:58:38.352Z,1.42
2023-05-02T01:01:15.319Z,1.40
2023-05-02T01:03:51.797Z,1.39
2023-05-02T01:06:57.350Z,1.40
2023-05-02T01:09:34.341Z,1.43
2023-05-02T01:12:26.050Z,1.45
2023-05-02T01:14:57.443Z,1.44
2023-05-02T01:17:28.782Z,1.43
2023-05-02T01:19:58.469Z,1.53
2023-05-02T01:22:27.935Z,1.69
2023-05-02T01:24:58.283Z,1.86
2023-05-02T01:27:31.370Z,1.92
2023-05-02T01:29:59.006Z,1.94
2023-05-02T01:32:26.531Z,1.92
2023-05-02T01:34:53.536Z,1.90
2023-05-02T01:37:20.483Z,1.86
2023-05-02T01:39:47.530Z,1.81
2023-05-02T01:42:14.785Z,1.76
2023-05-02T01:44:41.835Z,1.73
2023-05-02T01:47:08.898Z,1.69
2023-05-02T01:49:35.925Z,1.65
2023-05-02T01:52:05.291Z,1.61
2023-05-02T01:54:32.270Z,1.61
2023-05-02T01:56:59.323Z,1.61
2023-05-02T01:59:26.682Z,1.58
2023-05-02T02:01:53.728Z,1.65
2023-05-02T02:04:21.688Z,1.79
2023-05-02T02:06:52.404Z,1.93
2023-05-02T02:09:19.572Z,1.98
2023-05-02T02:11:54.059Z,1.96
2023-05-02T02:14:22.903Z,1.90
2023-05-02T02:16:51.073Z,1.84
2023-05-02T02:19:18.098Z,1.79
2023-05-02T02:21:45.159Z,1.73
2023-05-02T02:24:12.198Z,1.66
2023-05-02T02:26:39.152Z,1.58
2023-05-02T02:29:06.195Z,1.50
2023-05-02T02:31:34.435Z,1.42
2023-05-02T02:34:02.123Z,1.35
2023-05-02T02:36:31.423Z,1.30
2023-05-02T02:39:25.917Z,1.27
2023-05-02T02:42:10.264Z,1.22
2023-05-02T02:45:06.095Z,1.23
2023-05-02T02:47:44.628Z,1.29
2023-05-02T02:50:25.364Z,1.33
2023-05-02T02:52:56.359Z,1.35
2023-05-02T02:55:44.556Z,1.37
2023-05-02T02:58:14.874Z,1.43
2023-05-02T03:00:42.122Z,1.46
2023-05-02T03:03:09.229Z,1.47
2023-05-02T03:05:36.323Z,1.51
2023-05-02T03:08:03.371Z,1.55
2023-05-02T03:10:30.626Z,1.59
2023-05-02T03:12:57.977Z,1.63
2023-05-02T03:15:31.680Z,1.68
2023-05-02T03:17:59.559Z,1.69
2023-05-02T03:20:26.717Z,1.72
2023-05-02T03:22:53.951Z,1.75
2023-05-02T03:25:20.993Z,1.80
2023-05-02T03:27:48.812Z,1.86
2023-05-02T03:30:16.109Z,1.94
2023-05-02T03:32:43.416Z,2.03
2023-05-02T03:35:10.817Z,2.15
2023-05-02T03:37:38.889Z,2.30
2023-05-02T03:40:07.061Z,2.51
2023-05-02T03:42:41.482Z,2.80
2023-05-02T03:45:14.261Z,3.14
2023-05-02T03:47:41.850Z,3.46
2023-05-02T03:50:09.590Z,3.77
2023-05-02T03:52:36.943Z,4.10
2023-05-02T03:55:04.705Z,4.46
2023-05-02T03:57:31.751Z,4.85
2023-05-02T03:59:59.266Z,5.25
2023-05-02T04:02:28.106Z,5.63
2023-05-02T04:04:55.405Z,5.95
2023-05-02T04:07:25.886Z,6.25
2023-05-02T04:10:03.370Z,6.56
2023-05-02T04:12:35.235Z,6.83
2023-05-02T04:15:02.685Z,7.08
2023-05-02T04:17:30.501Z,7.31
2023-05-02T04:19:57.559Z,7.52
2023-05-02T04:22:26.904Z,7.71
2023-05-02T04:24:58.045Z,7.87
2023-05-02T04:27:26.216Z,8.06
2023-05-02T04:29:56.750Z,8.28
2023-05-02T04:32:23.857Z,8.49
2023-05-02T04:34:52.062Z,8.67
2023-05-02T04:37:21.116Z,8.90
2023-05-02T04:39:49.362Z,9.10
2023-05-02T04:42:20.070Z,9.32
2023-05-02T04:44:55.204Z,9.46
2023-05-02T04:47:22.320Z,9.51
2023-05-02T04:49:49.498Z,9.56
2023-05-02T04:52:16.557Z,9.69
2023-05-02T04:54:44.514Z,9.83
2023-05-02T04:57:11.972Z,9.93
2023-05-02T04:59:43.322Z,10.08
2023-05-02T05:02:12.949Z,10.23
2023-05-02T05:04:40.597Z,10.45
2023-05-02T05:07:07.883Z,10.62
2023-05-02T05:09:35.148Z,10.73
2023-05-02T05:12:02.261Z,10.71
2023-05-02T05:14:31.645Z,10.72
2023-05-02T05:16:59.547Z,10.79
2023-05-02T05:19:27.066Z,10.89
2023-05-02T05:21:54.332Z,11.03
2023-05-02T05:24:21.890Z,11.18
2023-05-02T05:26:50.054Z,11.27
2023-05-02T05:29:18.497Z,11.28
2023-05-02T05:31:46.145Z,11.31
2023-05-02T05:34:15.746Z,11.39
2023-05-02T05:36:43.669Z,11.37
2023-05-02T05:39:11.023Z,11.32
2023-05-02T05:41:39.914Z,11.32
2023-05-02T05:44:09.415Z,11.32
2023-05-02T05:46:36.434Z,11.34
2023-05-02T05:49:04.438Z,11.43
2023-05-02T05:51:32.500Z,11.52
2023-05-02T05:54:00.687Z,11.58
2023-05-02T05:56:28.338Z,11.60
2023-05-02T05:59:05.115Z,11.71
2023-05-02T06:01:32.475Z,11.75
2023-05-02T06:04:00.327Z,11.82
2023-05-02T06:06:27.758Z,11.92
2023-05-02T06:08:54.956Z,11.99
2023-05-02T06:11:22.822Z,12.09
2023-05-02T06:13:50.064Z,12.17
2023-05-02T06:16:18.978Z,12.27
2023-05-02T06:18:46.713Z,12.28
2023-05-02T06:21:14.276Z,12.24
2023-05-02T06:23:41.247Z,12.24
2023-05-02T06:26:08.372Z,12.21
2023-05-02T06:28:35.533Z,12.24
2023-05-02T06:31:06.243Z,12.27
2023-05-02T06:33:34.176Z,12.37
2023-05-02T06:36:02.414Z,12.53
2023-05-02T06:38:29.781Z,12.74
2023-05-02T06:40:56.799Z,12.94
2023-05-02T06:43:23.953Z,13.06
2023-05-02T06:45:55.083Z,13.19
2023-05-02T06:48:22.538Z,13.30
2023-05-02T06:50:49.892Z,13.40
2023-05-02T06:53:17.037Z,13.53
2023-05-02T06:55:45.221Z,13.51
2023-05-02T06:58:12.279Z,13.67
2023-05-02T07:00:39.236Z,13.83
2023-05-02T07:03:06.445Z,13.95
2023-05-02T07:05:33.506Z,14.09
2023-05-02T07:08:00.484Z,14.18
2023-05-02T07:10:27.492Z,14.19
2023-05-02T07:12:54.541Z,14.25
2023-05-02T07:15:21.483Z,14.31
2023-05-02T07:17:49.742Z,14.30
2023-05-02T07:20:16.924Z,14.44
2023-05-02T07:22:43.957Z,14.63
2023-05-02T07:25:11.359Z,14.87
2023-05-02T07:27:38.469Z,15.12
2023-05-02T07:30:06.878Z,15.31
2023-05-02T07:32:34.065Z,15.37
2023-05-02T07:35:01.979Z,15.38
2023-05-02T07:37:34.213Z,15.46
2023-05-02T07:40:01.988Z,15.55
2023-05-02T07:42:32.528Z,15.76
2023-05-02T07:44:59.923Z,15.93
2023-05-02T07:47:27.370Z,16.04
2023-05-02T07:49:54.583Z,16.01
2023-05-02T07:52:21.835Z,15.88
2023-05-02T07:54:49.918Z,15.88
2023-05-02T07:57:17.478Z,16.03
2023-05-02T07:59:44.514Z,16.27
2023-05-02T08:02:14.034Z,16.42
2023-05-02T08:04:41.472Z,16.66
2023-05-02T08:07:08.616Z,16.88
2023-05-02T08:09:35.567Z,16.91
2023-05-02T08:12:03.594Z,16.90
2023-05-02T08:14:30.896Z,16.91
2023-05-02T08:16:58.764Z,16.97
2023-05-02T08:19:25.912Z,16.91
2023-05-02T08:21:56.241Z,16.88
2023-05-02T08:24:23.483Z,16.72
2023-05-02T08:26:51.035Z,16.50
2023-05-02T08:29:18.096Z,16.45
2023-05-02T08:31:45.137Z,16.63
2023-05-02T08:34:12.381Z,16.81
2023-05-02T08:36:39.440Z,16.92
2023-05-02T08:39:08.425Z,17.14
2023-05-02T08:41:35.910Z,17.23
2023-05-02T08:44:03.190Z,17.20
2023-05-02T08:46:30.431Z,17.25
2023-05-02T08:48:59.335Z,17.25
2023-05-02T08:51:29.364Z,17.42
2023-05-02T08:53:56.746Z,17.64
2023-05-02T08:56:23.694Z,17.54
2023-05-02T08:58:51.242Z,17.39
2023-05-02T09:01:21.528Z,17.55
2023-05-02T09:03:49.156Z,17.84
2023-05-02T09:06:17.661Z,17.87
2023-05-02T09:08:46.399Z,17.58
2023-05-02T09:11:13.689Z,17.72
2023-05-02T09:13:42.287Z,17.95
2023-05-02T09:16:13.048Z,18.17
2023-05-02T09:18:45.717Z,18.28
2023-05-02T09:21:16.685Z,18.28
2023-05-02T09:23:46.906Z,18.47
2023-05-02T09:26:21.636Z,18.77
2023-05-02T09:28:53.295Z,19.00
2023-05-02T09:31:49.623Z,19.05
2023-05-02T09:34:17.518Z,18.91
2023-05-02T09:36:46.688Z,18.48
2023-05-02T09:39:15.894Z,18.41
2023-05-02T09:41:43.857Z,18.48
2023-05-02T09:44:12.564Z,18.58
2023-05-02T09:46:43.814Z,18.64
2023-05-02T09:49:10.925Z,18.62
2023-05-02T09:51:38.078Z,18.83
2023-05-02T09:54:05.237Z,19.08
2023-05-02T09:56:32.493Z,19.15
2023-05-02T09:59:15.414Z,19.09
2023-05-02T10:01:42.562Z,19.23
2023-05-02T10:04:17.088Z,19.32
2023-05-02T10:06:44.935Z,19.32
2023-05-02T10:09:15.404Z,19.07
2023-05-02T10:11:45.687Z,19.00
2023-05-02T10:14:12.979Z,18.98
2023-05-02T10:17:01.801Z,19.12
2023-05-02T10:19:39.403Z,19.32
2023-05-02T10:22:06.556Z,19.52
2023-05-02T10:24:34.010Z,19.79
2023-05-02T10:29:32.468Z,19.69
2023-05-02T10:32:01.123Z,19.23
2023-05-02T10:34:28.234Z,18.99
2023-05-02T10:36:56.711Z,19.00
2023-05-02T10:39:25.089Z,19.05
2023-05-02T10:41:53.049Z,19.15
2023-05-02T10:44:35.979Z,19.12
2023-05-02T10:47:21.991Z,18.95
2023-05-02T10:49:55.982Z,18.84
2023-05-02T10:52:26.820Z,18.97
2023-05-02T10:55:23.459Z,19.12
2023-05-02T10:58:08.923Z,19.25
2023-05-02T11:00:35.989Z,19.42
2023-05-02T11:03:04.010Z,19.61
2023-05-02T11:05:31.397Z,19.94
2023-05-02T11:08:19.325Z,20.12
2023-05-02T11:10:48.230Z,20.17
2023-05-02T11:13:16.019Z,20.28
2023-05-02T11:15:43.034Z,20.23
2023-05-02T11:18:14.071Z,20.13
2023-05-02T11:20:42.039Z,20.11
2023-05-02T11:23:21.749Z,20.13
2023-05-02T11:25:49.582Z,20.17
2023-05-02T11:28:38.821Z,20.23
2023-05-02T11:31:06.802Z,20.22
2023-05-02T11:33:34.447Z,20.31
2023-05-02T11:36:01.622Z,20.33
2023-05-02T11:38:36.785Z,20.12
2023-05-02T11:41:04.638Z,19.89
2023-05-02T11:43:32.538Z,19.88
2023-05-02T11:46:01.732Z,19.78
2023-05-02T11:48:29.134Z,19.82
2023-05-02T11:50:58.109Z,19.58
2023-05-02T11:53:26.391Z,19.57
2023-05-02T11:55:55.542Z,19.75
2023-05-02T11:58:24.095Z,19.96
2023-05-02T12:00:52.137Z,20.05
2023-05-02T12:03:29.787Z,20.11
2023-05-02T12:05:57.859Z,20.14
2023-05-02T12:08:27.981Z,20.20
2023-05-02T12:10:55.906Z,20.35
2023-05-02T12:13:24.472Z,20.50
2023-05-02T12:15:52.300Z,20.39
2023-05-02T12:18:22.037Z,20.42
2023-05-02T12:20:49.401Z,20.41
2023-05-02T12:23:16.370Z,20.66
2023-05-02T12:25:43.407Z,20.86
2023-05-02T12:28:10.646Z,21.02
2023-05-02T12:30:41.693Z,21.21
2023-05-02T12:33:08.799Z,21.35
2023-05-02T12:35:36.820Z,21.41
2023-05-02T12:38:16.442Z,21.46
2023-05-02T12:40:53.629Z,21.52
2023-05-02T12:43:22.289Z,21.49
2023-05-02T12:45:50.039Z,21.26
2023-05-02T12:48:28.586Z,21.16
2023-05-02T12:50:55.666Z,21.28
2023-05-02T12:53:43.526Z,21.45
2023-05-02T12:56:11.153Z,21.51
2023-05-02T12:58:43.189Z,21.39
2023-05-02T13:01:11.092Z,21.00
2023-05-02T13:03:38.247Z,20.36
2023-05-02T13:06:05.993Z,20.13
2023-05-02T13:08:34.360Z,20.29
2023-05-02T13:11:03.030Z,20.20
2023-05-02T13:13:30.905Z,19.98
2023-05-02T13:15:57.954Z,19.98
2023-05-02T13:18:25.250Z,20.05
2023-05-02T13:20:52.352Z,20.12
2023-05-02T13:23:19.406Z,20.08
2023-05-02T13:25:46.342Z,20.02
2023-05-02T13:28:13.293Z,19.96
2023-05-02T13:30:40.679Z,19.95
2023-05-02T13:33:09.401Z,19.93
2023-05-02T13:35:36.594Z,19.80
2023-05-02T13:38:03.957Z,19.85
2023-05-02T13:40:31.091Z,20.00
2023-05-02T13:42:58.143Z,20.10
2023-05-02T13:45:25.069Z,20.40
2023-05-02T13:47:52.077Z,20.72
2023-05-02T13:50:19.270Z,20.76
2023-05-02T13:52:48.393Z,20.94
2023-05-02T13:55:16.129Z,20.95
2023-05-02T13:57:43.782Z,20.88
2023-05-02T14:00:11.626Z,21.02
2023-05-02T14:02:39.303Z,21.17
2023-05-02T14:05:07.257Z,21.09
2023-05-02T14:07:34.227Z,21.03
2023-05-02T14:10:01.510Z,21.07
2023-05-02T14:12:28.833Z,21.02
2023-05-02T14:14:55.897Z,21.10
2023-05-02T14:17:25.314Z,20.95
2023-05-02T14:19:52.562Z,20.65
2023-05-02T14:22:19.711Z,20.43
2023-05-02T14:24:46.939Z,20.53
2023-05-02T14:27:18.360Z,20.65
2023-05-02T14:29:46.245Z,20.93
2023-05-02T14:32:13.704Z,21.03
2023-05-02T14:34:41.761Z,21.02
2023-05-02T14:37:09.384Z,20.93
2023-05-02T14:39:37.063Z,20.68
2023-05-02T14:42:04.683Z,20.49
2023-05-02T14:44:32.221Z,20.30
2023-05-02T14:46:59.614Z,20.30
2023-05-02T14:49:27.445Z,20.34
2023-05-02T14:51:56.280Z,20.49
2023-05-02T14:54:31.056Z,20.56
2023-05-02T14:56:59.952Z,20.58
2023-05-02T14:59:30.777Z,20.66
2023-05-02T15:01:58.169Z,20.64
2023-05-02T15:04:27.430Z,20.65
2023-05-02T15:06:55.669Z,20.80
2023-05-02T15:09:23.571Z,20.90
2023-05-02T15:11:50.619Z,20.87
2023-05-02T15:14:17.503Z,20.94
2023-05-02T15:16:45.020Z,21.15
2023-05-02T15:19:12.169Z,21.31
2023-05-02T15:21:39.217Z,21.36
2023-05-02T15:24:06.602Z,21.11
2023-05-02T15:26:34.023Z,21.10
2023-05-02T15:29:01.202Z,21.33
2023-05-02T15:31:28.562Z,21.35
2023-05-02T15:33:55.899Z,21.33
2023-05-02T15:36:27.023Z,21.37
2023-05-02T15:38:53.976Z,21.29
2023-05-02T15:41:21.134Z,21.17
2023-05-02T15:43:48.167Z,21.19
2023-05-02T15:46:16.457Z,21.09
2023-05-02T15:48:43.698Z,21.00
2023-05-02T15:51:10.950Z,21.01
2023-05-02T15:53:42.401Z,21.04
2023-05-02T15:56:09.957Z,21.00
2023-05-02T15:58:37.106Z,20.94
2023-05-02T16:01:04.412Z,20.97
2023-05-02T16:03:32.223Z,21.04
2023-05-02T16:05:59.649Z,20.88
2023-05-02T16:08:29.695Z,20.61
2023-05-02T16:10:58.016Z,20.35
2023-05-02T16:13:25.017Z,20.04
2023-05-02T16:15:52.807Z,19.64
2023-05-02T16:18:19.931Z,19.25
2023-05-02T16:20:47.997Z,18.89
2023-05-02T16:23:14.941Z,18.50
2023-05-02T16:25:41.884Z,18.17
2023-05-02T16:28:09.041Z,17.89
2023-05-02T16:30:37.438Z,17.67
2023-05-02T16:33:04.732Z,17.41
2023-05-02T16:35:32.128Z,17.16
2023-05-02T16:37:59.065Z,16.90
2023-05-02T16:40:28.223Z,16.59
2023-05-02T16:42:55.675Z,16.25
2023-05-02T16:45:22.974Z,15.93
2023-05-02T16:47:50.067Z,15.59
2023-05-02T16:50:17.274Z,15.26
2023-05-02T16:52:44.736Z,14.91
2023-05-02T16:55:12.385Z,14.58
2023-05-02T16:57:39.542Z,14.25
2023-05-02T17:00:10.507Z,13.95
2023-05-02T17:02:37.526Z,13.63
2023-05-02T17:05:05.184Z,13.32
2023-05-02T17:07:32.431Z,13.02
2023-05-02T17:09:59.648Z,12.76
2023-05-02T17:12:27.450Z,12.51
2023-05-02T17:14:54.724Z,12.28
2023-05-02T17:17:23.693Z,12.08
2023-05-02T17:19:51.050Z,11.84
2023-05-02T17:22:19.142Z,11.61
2023-05-02T17:24:48.738Z,11.36
2023-05-02T17:27:15.712Z,11.14
2023-05-02T17:29:42.820Z,10.95
2023-05-02T17:32:11.407Z,10.74
2023-05-02T17:34:38.965Z,10.51
2023-05-02T17:37:07.464Z,10.31
2023-05-02T17:39:34.499Z,10.13
2023-05-02T17:42:01.742Z,9.97
2023-05-02T17:44:31.582Z,9.83
2023-05-02T17:46:58.702Z,9.69
2023-05-02T17:49:26.066Z,9.58
2023-05-02T17:51:53.094Z,9.47
2023-05-02T17:54:20.659Z,9.39
2023-05-02T17:56:47.601Z,9.31
2023-05-02T17:59:15.374Z,9.26
2023-05-02T18:01:42.633Z,9.18
2023-05-02T18:04:12.935Z,9.08
2023-05-02T18:06:41.266Z,8.97
2023-05-02T18:09:09.080Z,8.86
2023-05-02T18:11:40.127Z,8.75
2023-05-02T18:14:07.392Z,8.64
2023-05-02T18:16:36.387Z,8.54
2023-05-02T18:19:03.726Z,8.47
2023-05-02T18:21:34.052Z,8.43
2023-05-02T18:24:01.094Z,8.37
2023-05-02T18:26:28.653Z,8.29
2023-05-02T18:28:55.706Z,8.21
2023-05-02T18:31:24.109Z,8.14
2023-05-02T18:33:52.996Z,8.07
2023-05-02T18:36:28.787Z,8.02
2023-05-02T18:38:56.496Z,7.96
2023-05-02T18:41:24.041Z,7.89
2023-05-02T18:43:51.185Z,7.82
2023-05-02T18:46:18.179Z,7.73
2023-05-02T18:48:45.485Z,7.68
2023-05-02T18:51:12.532Z,7.61
2023-05-02T18:53:39.576Z,7.57
2023-05-02T18:56:14.591Z,7.53
2023-05-02T18:58:42.377Z,7.46
2023-05-02T19:01:16.079Z,7.41
2023-05-02T19:03:44.018Z,7.35
2023-05-02T19:06:11.452Z,7.29
2023-05-02T19:08:40.436Z,7.24
2023-05-02T19:11:07.689Z,7.20
2023-05-02T19:13:34.701Z,7.17
2023-05-02T19:16:01.782Z,7.15
2023-05-02T19:18:28.800Z,7.12
2023-05-02T19:20:56.060Z,7.07
2023-05-02T19:23:23.396Z,7.01
2023-05-02T19:25:50.553Z,6.96
2023-05-02T19:28:17.604Z,6.94
2023-05-02T19:30:44.838Z,6.91
2023-05-02T19:33:12.039Z,6.88
2023-05-02T19:35:39.625Z,6.83
2023-05-02T19:38:06.709Z,6.79
2023-05-02T19:40:33.744Z,6.75
2023-05-02T19:43:00.901Z,6.72
2023-05-02T19:45:27.938Z,6.69
2023-05-02T19:47:55.072Z,6.68
2023-05-02T19:50:22.135Z,6.65
2023-05-02T19:52:50.844Z,6.63
2023-05-02T19:55:18.731Z,6.61
2023-05-02T19:57:45.842Z,6.58
2023-05-02T20:00:14.273Z,6.58
2023-05-02T20:02:41.534Z,6.54
2023-05-02T20:05:09.199Z,6.47
2023-05-02T20:07:36.381Z,6.42
2023-05-02T20:10:03.963Z,6.37
2023-05-02T20:12:31.307Z,6.30
2023-05-02T20:14:58.336Z,6.24
2023-05-02T20:17:25.814Z,6.17
2023-05-02T20:19:52.942Z,6.12
2023-05-02T20:22:20.032Z,6.10
2023-05-02T20:24:47.034Z,6.09
2023-05-02T20:27:14.081Z,6.10
2023-05-02T20:29:41.133Z,6.11
2023-05-02T20:32:08.584Z,6.11
2023-05-02T20:34:35.845Z,6.16
2023-05-02T20:37:05.464Z,6.20
2023-05-02T20:39:32.702Z,6.21
2023-05-02T20:41:59.739Z,6.23
2023-05-02T20:44:28.671Z,6.22
2023-05-02T20:46:55.996Z,6.21
2023-05-02T20:49:22.928Z,6.19
2023-05-02T20:51:50.794Z,6.16
2023-05-02T20:54:20.917Z,6.12
2023-05-02T20:56:47.969Z,6.10
2023-05-02T20:59:15.010Z,6.09
2023-05-02T21:01:41.993Z,6.09
2023-05-02T21:04:09.166Z,6.09
2023-05-02T21:06:36.493Z,6.06
2023-05-02T21:09:04.019Z,6.04
2023-05-02T21:11:31.727Z,6.05
2023-05-02T21:13:58.724Z,6.08
2023-05-02T21:16:25.875Z,6.10
2023-05-02T21:18:53.847Z,6.09
2023-05-02T21:21:20.893Z,6.09
2023-05-02T21:23:47.840Z,6.09
2023-05-02T21:26:14.789Z,6.07
2023-05-02T21:28:42.034Z,6.00
2023-05-02T21:31:09.177Z,5.91
2023-05-02T21:33:36.436Z,5.82
2023-05-02T21:36:03.581Z,5.74
2023-05-02T21:38:30.624Z,5.66
2023-05-02T21:41:04.325Z,5.59
2023-05-02T21:43:34.634Z,5.55
2023-05-02T21:46:01.907Z,5.49
2023-05-02T21:48:28.848Z,5.43
2023-05-02T21:50:55.792Z,5.40
2023-05-02T21:53:22.839Z,5.34
2023-05-02T21:55:49.888Z,5.30
2023-05-02T21:58:16.941Z,5.28
2023-05-02T22:00:43.942Z,5.25
2023-05-02T22:03:12.135Z,5.21
2023-05-02T22:05:42.680Z,5.15
2023-05-02T22:08:11.237Z,5.12
2023-05-02T22:10:39.450Z,5.11
2023-05-02T22:13:09.602Z,5.07
2023-05-02T22:15:36.909Z,5.03
2023-05-02T22:18:06.933Z,4.99
2023-05-02T22:20:34.117Z,4.96
2023-05-02T22:23:01.120Z,4.92
2023-05-02T22:25:28.063Z,4.86
2023-05-02T22:27:55.029Z,4.81
2023-05-02T22:30:22.365Z,4.77
2023-05-02T22:32:49.324Z,4.73
2023-05-02T22:35:16.868Z,4.69
2023-05-02T22:37:43.914Z,4.68
2023-05-02T22:40:12.876Z,4.69
2023-05-02T22:42:39.958Z,4.67
2023-05-02T22:47:51.493Z,4.67
2023-05-02T22:50:20.036Z,4.71
2023-05-02T22:52:49.401Z,4.74
2023-05-02T22:55:16.517Z,4.74
2023-05-02T22:57:43.948Z,4.72
2023-05-02T23:00:12.445Z,4.70
2023-05-02T23:02:40.020Z,4.67
2023-05-02T23:05:07.852Z,4.66
2023-05-02T23:07:34.895Z,4.64
2023-05-02T23:10:02.158Z,4.62
2023-05-02T23:12:29.291Z,4.60
2023-05-02T23:14:57.059Z,4.58
2023-05-02T23:17:24.153Z,4.56
2023-05-02T23:19:51.265Z,4.54
2023-05-02T23:22:18.297Z,4.49
2023-05-02T23:24:46.930Z,4.43
2023-05-02T23:27:14.133Z,4.39
2023-05-02T23:29:41.177Z,4.39
2023-05-02T23:32:08.538Z,4.39
2023-05-02T23:34:38.446Z,4.37
2023-05-02T23:37:06.943Z,4.36
2023-05-02T23:39:34.076Z,4.39
2023-05-02T23:42:03.954Z,4.38
2023-05-02T23:44:31.573Z,4.40
2023-05-02T23:46:59.648Z,4.41
2023-05-02T23:49:26.983Z,4.41
2023-05-02T23:51:54.372Z,4.43
2023-05-02T23:54:21.406Z,4.44
2023-05-02T23:56:48.425Z,4.45
2023-05-02T23:59:15.474Z,4.46
